Time;durP1;ratioP1;P1;durP2;ratioP2;P2;SDS_P1;SDS_P2;PMS_P1;PMS_P2;Temp;Humidity;BMP_temperature;BMP_pressure;BME280_temperature;BME280_humidity;BME280_pressure;Samples;Min_cycle;Max_cycle;Signal;HPM_P1;HPM_P2
2021/05/22 00:00:04;;;;;;;1.85;0.90;;;;;;;6.21;100.00;95190.63;1038467;28;20237;-68
2021/05/22 00:00:35;;;;;;;0.40;0.40;;;;;;;6.14;100.00;95172.59;1038902;28;20040;-68
2021/05/22 00:01:05;;;;;;;2.85;0.70;;;;;;;6.22;100.00;95189.59;1038747;28;20357;-69
2021/05/22 00:01:36;;;;;;;0.35;0.35;;;;;;;6.22;100.00;95194.78;1043242;28;20028;-68
2021/05/22 00:02:06;;;;;;;0.60;0.60;;;;;;;6.22;100.00;95188.81;1046792;28;20051;-69
2021/05/22 00:02:37;;;;;;;0.75;0.45;;;;;;;6.14;100.00;95184.84;1042970;28;20382;-69
2021/05/22 00:03:08;;;;;;;0.57;0.30;;;;;;;6.18;100.00;95193.72;1046878;28;20024;-68
2021/05/22 00:03:38;;;;;;;0.77;0.60;;;;;;;6.22;100.00;95201.81;1046929;28;20024;-68
2021/05/22 00:04:09;;;;;;;0.60;0.50;;;;;;;6.19;100.00;95195.28;1047096;28;20469;-68
2021/05/22 00:04:40;;;;;;;0.60;0.40;;;;;;;6.21;100.00;95201.06;1051221;28;20020;-69
2021/05/22 00:05:11;;;;;;;0.57;0.50;;;;;;;6.21;100.00;95208.88;1055106;28;20270;-68
2021/05/22 00:05:44;;;;;;;1.75;0.45;;;;;;;6.21;100.00;95214.06;1051017;28;20024;-65
2021/05/22 00:06:14;;;;;;;1.58;0.55;;;;;;;6.19;100.00;95216.13;1046605;28;20029;-69
2021/05/22 00:06:45;;;;;;;0.40;0.40;;;;;;;6.18;100.00;95219.78;1042649;28;20294;-67
2021/05/22 00:07:15;;;;;;;0.73;0.50;;;;;;;6.20;100.00;95206.50;1042270;28;20025;-68
2021/05/22 00:07:46;;;;;;;0.70;0.60;;;;;;;6.19;100.00;95204.94;1042733;28;20021;-67
2021/05/22 00:08:16;;;;;;;0.68;0.60;;;;;;;6.19;100.00;95213.53;1038714;28;20041;-67
2021/05/22 00:08:47;;;;;;;2.15;0.70;;;;;;;6.20;100.00;95202.06;1042465;28;20028;-68
2021/05/22 00:09:17;;;;;;;1.85;0.60;;;;;;;6.20;100.00;95207.28;1042907;28;20032;-68
2021/05/22 00:09:48;;;;;;;2.05;0.60;;;;;;;6.20;100.00;95201.28;1046856;28;20768;-67
2021/05/22 00:10:18;;;;;;;1.77;0.60;;;;;;;6.21;100.00;95198.44;1050878;28;20579;-67
2021/05/22 00:10:49;;;;;;;2.10;0.80;;;;;;;6.18;100.00;95193.72;1050908;28;20109;-68
2021/05/22 00:11:19;;;;;;;0.88;0.50;;;;;;;6.20;100.00;95199.47;1051134;28;20032;-68
2021/05/22 00:11:50;;;;;;;3.05;0.70;;;;;;;6.19;100.00;95189.28;1046806;28;20032;-68
2021/05/22 00:12:20;;;;;;;0.77;0.68;;;;;;;6.19;100.00;95179.66;1047918;28;20033;-68
2021/05/22 00:12:51;;;;;;;0.50;0.50;;;;;;;6.18;100.00;95183.31;1046745;28;20038;-67
2021/05/22 00:13:21;;;;;;;1.60;0.68;;;;;;;6.09;100.00;95158.75;1042653;28;20036;-68
2021/05/22 00:13:51;;;;;;;0.40;0.40;;;;;;;6.20;100.00;95176.00;1043998;28;20605;-68
2021/05/22 00:14:22;;;;;;;0.47;0.47;;;;;;;6.19;100.00;95169.25;1050817;28;20024;-67
2021/05/22 00:14:52;;;;;;;0.70;0.50;;;;;;;6.16;100.00;95168.94;1050996;28;20031;-69
2021/05/22 00:15:23;;;;;;;1.85;0.60;;;;;;;6.18;100.00;95165.06;1051009;28;20020;-67
2021/05/22 00:15:53;;;;;;;1.17;0.40;;;;;;;6.13;100.00;95165.78;1045672;28;20481;-66
2021/05/22 00:16:24;;;;;;;0.68;0.65;;;;;;;6.16;100.00;95164.53;1038601;28;20371;-68
2021/05/22 00:16:54;;;;;;;1.83;0.75;;;;;;;6.15;100.00;95152.53;1038884;28;20096;-67
2021/05/22 00:17:24;;;;;;;2.05;0.70;;;;;;;6.07;100.00;95147.78;1038598;28;20025;-68
2021/05/22 00:17:55;;;;;;;1.50;0.68;;;;;;;6.09;100.00;95145.72;1038553;28;20558;-67
2021/05/22 00:18:28;;;;;;;1.98;0.70;;;;;;;6.15;100.00;95149.94;1034636;28;20651;-68
2021/05/22 00:18:59;;;;;;;1.92;0.50;;;;;;;6.14;100.00;95150.97;1035422;28;20022;-68
2021/05/22 00:19:29;;;;;;;0.60;0.50;;;;;;;6.12;100.00;95147.81;1040774;28;20295;-67
2021/05/22 00:20:00;;;;;;;2.17;0.80;;;;;;;6.11;100.00;95141.06;1047903;28;20024;-67
2021/05/22 00:20:30;;;;;;;1.17;0.65;;;;;;;6.11;100.00;95135.84;1054395;28;20051;-67
2021/05/22 00:21:01;;;;;;;0.95;0.30;;;;;;;6.11;100.00;95130.63;1055188;28;20760;-68
2021/05/22 00:21:31;;;;;;;0.40;0.40;;;;;;;6.10;100.00;95139.47;1050809;28;20028;-69
2021/05/22 00:22:02;;;;;;;1.08;0.57;;;;;;;6.11;100.00;95141.06;1042638;28;20091;-68
2021/05/22 00:22:33;;;;;;;0.40;0.40;;;;;;;6.03;100.00;95133.69;1038603;28;20041;-67
2021/05/22 00:23:03;;;;;;;2.28;0.60;;;;;;;6.04;100.00;95132.66;1042642;28;20529;-68
2021/05/22 00:23:34;;;;;;;1.85;0.40;;;;;;;6.11;100.00;95138.44;1042450;28;20543;-67
2021/05/22 00:24:05;;;;;;;0.43;0.43;;;;;;;6.10;100.00;95147.28;1041217;28;20028;-68
2021/05/22 00:24:35;;;;;;;0.43;0.40;;;;;;;6.09;100.00;95150.94;1046648;28;20035;-67
2021/05/22 00:25:06;;;;;;;0.30;0.30;;;;;;;6.08;100.00;95155.34;1046882;28;20122;-67
2021/05/22 00:25:36;;;;;;;0.68;0.50;;;;;;;6.08;100.00;95146.75;1042702;28;20190;-67
2021/05/22 00:26:07;;;;;;;1.65;0.65;;;;;;;6.09;100.00;95161.34;1037745;28;20045;-67
2021/05/22 00:26:38;;;;;;;0.98;0.50;;;;;;;6.08;100.00;95162.38;1034768;28;20541;-67
2021/05/22 00:27:08;;;;;;;0.57;0.55;;;;;;;6.07;100.00;95166.00;1042589;28;20037;-68
2021/05/22 00:27:38;;;;;;;1.10;0.68;;;;;;;6.07;100.00;95171.22;1038821;28;20041;-68
2021/05/22 00:28:09;;;;;;;2.13;0.57;;;;;;;6.07;100.00;95186.84;1034427;28;20472;-67
2021/05/22 00:28:39;;;;;;;0.55;0.40;;;;;;;6.07;100.00;95187.66;1038645;28;20060;-68
2021/05/22 00:29:10;;;;;;;1.60;0.35;;;;;;;6.07;100.00;95186.84;1038702;28;20593;-67
2021/05/22 00:29:40;;;;;;;3.13;0.80;;;;;;;6.05;100.00;95184.50;1042907;28;20032;-68
2021/05/22 00:30:12;;;;;;;0.82;0.43;;;;;;;6.03;100.00;95177.97;1050915;28;20028;-67
2021/05/22 00:30:42;;;;;;;0.88;0.40;;;;;;;6.05;100.00;95179.28;1047019;28;20488;-68
2021/05/22 00:31:13;;;;;;;1.20;0.60;;;;;;;6.03;100.00;95180.56;1046751;28;20281;-67
2021/05/22 00:31:43;;;;;;;1.17;0.60;;;;;;;5.95;100.00;95163.56;1042873;28;20032;-68
2021/05/22 00:32:13;;;;;;;0.75;0.47;;;;;;;6.02;100.00;95169.34;1042824;28;20072;-68
2021/05/22 00:32:44;;;;;;;0.93;0.52;;;;;;;6.02;100.00;95168.59;1046942;28;20028;-67
2021/05/22 00:33:14;;;;;;;1.02;0.60;;;;;;;6.02;100.00;95165.97;1046077;28;20047;-68
2021/05/22 00:33:45;;;;;;;0.63;0.52;;;;;;;6.00;100.00;95162.81;1050981;28;20043;-67
2021/05/22 00:34:15;;;;;;;3.00;0.60;;;;;;;5.93;100.00;95144.78;1050955;28;20032;-67
2021/05/22 00:34:46;;;;;;;2.92;0.60;;;;;;;6.00;100.00;95139.38;1046720;28;20028;-68
2021/05/22 00:35:16;;;;;;;0.70;0.60;;;;;;;6.00;100.00;95139.38;1042762;28;20090;-68
2021/05/22 00:35:47;;;;;;;0.57;0.50;;;;;;;5.99;100.00;95125.59;1042064;28;20056;-69
2021/05/22 00:36:17;;;;;;;0.40;0.38;;;;;;;5.97;100.00;95121.66;1042499;28;20024;-68
2021/05/22 00:36:47;;;;;;;1.20;0.70;;;;;;;5.99;100.00;95127.41;1042816;28;20055;-68
2021/05/22 00:37:18;;;;;;;2.85;0.75;;;;;;;5.99;100.00;95124.81;1042782;28;20028;-69
2021/05/22 00:37:48;;;;;;;0.70;0.55;;;;;;;5.99;100.00;95122.19;1038419;28;20442;-68
2021/05/22 00:38:19;;;;;;;2.47;0.60;;;;;;;5.95;100.00;95121.13;1042637;28;20413;-66
2021/05/22 00:38:49;;;;;;;2.05;0.85;;;;;;;5.96;100.00;95128.69;1042809;28;20025;-66
2021/05/22 00:39:20;;;;;;;2.80;0.43;;;;;;;5.95;100.00;95136.75;1038753;28;20040;-68
2021/05/22 00:39:50;;;;;;;5.65;2.10;;;;;;;5.96;100.00;95143.53;1042515;28;20021;-68
2021/05/22 00:40:21;;;;;;;2.10;0.82;;;;;;;5.97;100.00;95150.28;1038756;28;20036;-68
2021/05/22 00:40:51;;;;;;;0.85;0.50;;;;;;;5.96;100.00;95148.72;1042904;28;20082;-67
2021/05/22 00:41:22;;;;;;;2.47;0.60;;;;;;;5.97;100.00;95158.09;1044833;28;20032;-66
2021/05/22 00:41:52;;;;;;;2.05;0.50;;;;;;;5.85;100.00;95140.03;1039417;28;20112;-68
2021/05/22 00:42:25;;;;;;;0.77;0.47;;;;;;;5.93;100.00;95155.22;1034485;28;20504;-65
2021/05/22 00:42:56;;;;;;;2.45;0.45;;;;;;;5.92;100.00;95153.63;1031465;28;20585;-68
2021/05/22 00:43:26;;;;;;;0.90;0.40;;;;;;;5.91;100.00;95160.66;1042083;28;20271;-64
2021/05/22 00:43:57;;;;;;;1.00;0.55;;;;;;;5.90;100.00;95159.09;1044205;28;20032;-69
2021/05/22 00:44:31;;;;;;;0.43;0.38;;;;;;;5.90;100.00;95153.88;1047572;28;20035;-69
2021/05/22 00:45:15;;;;;;;0.47;0.47;;;;;;;5.83;100.00;95144.69;1042979;28;20037;-68
2021/05/22 00:45:45;;;;;;;1.25;0.63;;;;;;;5.88;100.00;95147.34;1041143;28;20271;-67
2021/05/22 00:46:16;;;;;;;1.48;0.30;;;;;;;5.88;100.00;95140.31;1043291;28;20272;-67
2021/05/22 00:46:47;;;;;;;2.92;0.60;;;;;;;5.78;100.00;95121.22;1043164;28;20022;-69
2021/05/22 00:47:17;;;;;;;0.77;0.30;;;;;;;5.64;100.00;95094.81;1043854;28;20052;-67
2021/05/22 00:47:54;;;;;;;0.68;0.60;;;;;;;5.79;100.00;95100.13;1043497;28;20032;-67
2021/05/22 00:48:25;;;;;;;2.28;0.73;;;;;;;5.85;100.00;95095.75;1040072;28;20037;-68
2021/05/22 00:48:58;;;;;;;0.55;0.50;;;;;;;5.86;100.00;95111.13;1043688;28;20278;-68
2021/05/22 00:49:28;;;;;;;0.55;0.52;;;;;;;5.86;100.00;95108.53;1044913;28;20116;-67
2021/05/22 00:49:59;;;;;;;0.95;0.60;;;;;;;5.87;100.00;95112.72;1038745;28;20326;-68
2021/05/22 00:50:31;;;;;;;0.55;0.43;;;;;;;5.86;100.00;95126.75;1036198;28;20483;-67
2021/05/22 00:51:02;;;;;;;1.05;0.45;;;;;;;5.83;100.00;95134.25;1039446;28;20029;-69
2021/05/22 00:51:33;;;;;;;1.98;0.55;;;;;;;5.81;100.00;95141.56;1040020;28;20264;-68
2021/05/22 00:52:03;;;;;;;3.47;0.60;;;;;;;5.81;100.00;95150.16;1043607;28;20280;-68
2021/05/22 00:52:34;;;;;;;0.70;0.40;;;;;;;5.82;100.00;95149.09;1039564;28;20025;-68
2021/05/22 00:53:06;;;;;;;0.40;0.40;;;;;;;5.80;100.00;95147.78;1043957;28;20256;-66
2021/05/22 00:53:36;;;;;;;0.40;0.40;;;;;;;5.80;100.00;95147.78;1043359;28;20036;-68
2021/05/22 00:54:07;;;;;;;1.88;0.65;;;;;;;5.74;100.00;95146.19;1039579;28;20268;-67
2021/05/22 00:54:37;;;;;;;0.82;0.57;;;;;;;5.76;100.00;95151.91;1035331;28;20021;-68
2021/05/22 00:55:08;;;;;;;1.67;0.60;;;;;;;5.79;100.00;95160.00;1032309;28;20026;-70
2021/05/22 00:55:39;;;;;;;0.70;0.40;;;;;;;5.80;100.00;95160.78;1035479;28;20022;-69
2021/05/22 00:56:09;;;;;;;0.93;0.50;;;;;;;5.78;100.00;95163.66;1030810;28;20041;-69
2021/05/22 00:56:39;;;;;;;3.67;0.47;;;;;;;5.70;100.00;95145.06;1035526;28;20045;-70
2021/05/22 00:57:10;;;;;;;0.85;0.50;;;;;;;5.68;100.00;95153.16;1039020;28;20029;-68
2021/05/22 00:57:40;;;;;;;0.57;0.50;;;;;;;5.76;100.00;95160.50;1031150;28;20033;-69
2021/05/22 00:58:11;;;;;;;1.70;0.60;;;;;;;5.74;100.00;95178.19;1039306;28;20029;-68
2021/05/22 00:58:42;;;;;;;0.93;0.47;;;;;;;5.74;100.00;95178.19;1039360;28;20051;-69
2021/05/22 00:59:15;;;;;;;0.65;0.40;;;;;;;5.74;100.00;95174.81;1043931;28;20036;-68
2021/05/22 00:59:45;;;;;;;0.73;0.40;;;;;;;5.67;100.00;95173.19;1043990;28;20330;-69
2021/05/22 01:00:17;;;;;;;0.75;0.52;;;;;;;5.62;100.00;95164.53;1039414;28;20936;-68
2021/05/22 01:00:49;;;;;;;0.45;0.43;;;;;;;5.71;100.00;95173.47;1043192;28;20051;-67
2021/05/22 01:01:19;;;;;;;0.75;0.40;;;;;;;5.71;100.00;95170.09;1043075;28;20275;-69
2021/05/22 01:01:52;;;;;;;0.43;0.40;;;;;;;5.71;100.00;95165.66;1043488;28;20354;-68
2021/05/22 01:02:24;;;;;;;1.45;0.63;;;;;;;5.69;100.00;95165.13;1035313;28;20549;-68
2021/05/22 01:02:55;;;;;;;0.20;0.20;;;;;;;5.70;100.00;95171.09;1039147;28;20359;-68
2021/05/22 01:03:30;;;;;;;2.15;0.50;;;;;;;5.70;100.00;95164.09;1043595;28;20278;-70
2021/05/22 01:04:00;;;;;;;2.17;0.40;;;;;;;5.70;100.00;95161.50;1045709;28;20028;-69
2021/05/22 01:04:30;;;;;;;0.30;0.30;;;;;;;5.70;100.00;95171.91;1046967;28;20267;-68
2021/05/22 01:05:01;;;;;;;0.30;0.30;;;;;;;5.70;100.00;95166.72;1047729;28;20020;-70
2021/05/22 01:05:31;;;;;;;1.08;0.30;;;;;;;5.62;100.00;95164.53;1039492;28;20024;-70
2021/05/22 01:06:18;;;;;;;0.93;0.30;;;;;;;5.67;100.00;95164.59;1034641;28;20030;-67
2021/05/22 01:06:48;;;;;;;1.00;0.38;;;;;;;5.67;100.00;95167.97;1039472;28;20009;-69
2021/05/22 01:07:19;;;;;;;1.02;0.40;;;;;;;5.61;100.00;95162.97;1041591;28;20314;-68
2021/05/22 01:07:49;;;;;;;0.20;0.20;;;;;;;5.67;100.00;95172.41;1041366;28;20486;-68
2021/05/22 01:08:21;;;;;;;21.75;0.82;;;;;;;5.67;100.00;95191.41;1043639;28;20021;-69
2021/05/22 01:09:05;;;;;;;0.45;0.20;;;;;;;5.68;100.00;95200.00;1043696;28;20056;-68
2021/05/22 01:09:35;;;;;;;0.30;0.30;;;;;;;5.66;100.00;95197.63;1040526;28;20404;-69
2021/05/22 01:10:06;;;;;;;0.40;0.20;;;;;;;5.60;100.00;95180.41;1039475;28;20328;-69
2021/05/22 01:10:37;;;;;;;0.20;0.20;;;;;;;5.58;100.00;95172.03;1037153;28;20022;-68
2021/05/22 01:11:12;;;;;;;0.20;0.20;;;;;;;5.64;100.00;95178.88;1039318;28;20025;-68
2021/05/22 01:11:46;;;;;;;0.77;0.20;;;;;;;5.57;100.00;95161.91;1043678;28;20099;-68
2021/05/22 01:12:16;;;;;;;0.47;0.47;;;;;;;5.61;100.00;95162.97;1035243;28;20825;-69
2021/05/22 01:12:48;;;;;;;1.17;0.43;;;;;;;5.62;100.00;95164.53;1036417;28;20261;-71
2021/05/22 01:13:18;;;;;;;0.45;0.20;;;;;;;5.58;100.00;95169.44;1038966;28;20037;-69
2021/05/22 01:13:55;;;;;;;0.20;0.20;;;;;;;5.59;100.00;95180.63;1035462;28;20261;-69
2021/05/22 01:14:49;;;;;;;0.28;0.20;;;;;;;5.56;100.00;95176.69;1038369;28;20045;-68
2021/05/22 01:15:22;;;;;;;0.40;0.20;;;;;;;5.56;100.00;95181.91;1042946;28;20283;-69
2021/05/22 01:15:53;;;;;;;0.40;0.28;;;;;;;5.47;100.00;95172.97;1038539;28;20264;-68
2021/05/22 01:16:26;;;;;;;0.35;0.20;;;;;;;5.48;100.00;95173.75;1042802;28;20381;-69
2021/05/22 01:16:57;;;;;;;0.10;0.10;;;;;;;5.50;100.00;95169.06;1043640;28;20274;-68
2021/05/22 01:17:27;;;;;;;0.13;0.13;;;;;;;5.54;100.00;95191.78;1039130;28;20264;-70
2021/05/22 01:17:58;;;;;;;0.20;0.20;;;;;;;5.51;100.00;95191.50;1030594;28;20026;-68
2021/05/22 01:18:28;;;;;;;1.05;0.25;;;;;;;5.42;100.00;95189.28;1031203;28;20384;-69
2021/05/22 01:18:59;;;;;;;2.15;0.20;;;;;;;5.52;100.00;95195.66;1043592;28;20017;-69
2021/05/22 01:19:37;;;;;;;0.20;0.20;;;;;;;5.51;100.00;95188.88;1035123;28;20025;-69
2021/05/22 01:20:26;;;;;;;1.00;0.30;;;;;;;5.53;100.00;95190.19;1039276;28;20391;-70
2021/05/22 01:20:58;;;;;;;0.10;0.10;;;;;;;5.49;100.00;95176.09;1043010;28;20250;-68
2021/05/22 01:21:29;;;;;;;0.25;0.25;;;;;;;5.50;100.00;95177.69;1046904;28;20349;-69
2021/05/22 01:22:00;;;;;;;0.85;0.35;;;;;;;5.48;100.00;95163.34;1046371;28;20255;-70
2021/05/22 01:22:36;;;;;;;1.65;0.30;;;;;;;5.48;100.00;95155.53;1043391;28;20058;-68
2021/05/22 01:23:11;;;;;;;1.00;0.20;;;;;;;5.50;100.00;95158.66;1039633;28;20305;-69
2021/05/22 01:23:46;;;;;;;0.85;0.35;;;;;;;5.50;100.00;95158.66;1043462;28;20251;-70
2021/05/22 01:24:17;;;;;;;1.23;0.20;;;;;;;5.47;100.00;95151.38;1043405;28;20338;-67
2021/05/22 01:24:51;;;;;;;2.60;0.10;;;;;;;5.50;100.00;95141.28;1038020;28;20343;-68
2021/05/22 01:25:22;;;;;;;0.20;0.20;;;;;;;5.48;100.00;95138.13;1039462;28;20858;-70
2021/05/22 01:25:53;;;;;;;2.08;0.30;;;;;;;5.49;100.00;95138.91;1044313;28;20673;-68
2021/05/22 01:26:23;;;;;;;1.33;0.22;;;;;;;5.37;100.00;95132.03;1045374;28;20299;-68
2021/05/22 01:26:54;;;;;;;0.55;0.20;;;;;;;5.42;100.00;95145.06;1047070;28;20477;-69
2021/05/22 01:27:27;;;;;;;0.20;0.10;;;;;;;5.40;100.00;95141.94;1039189;28;20017;-68
2021/05/22 01:27:58;;;;;;;0.25;0.22;;;;;;;5.45;100.00;95138.59;1039017;28;20255;-70
2021/05/22 01:28:29;;;;;;;2.75;0.30;;;;;;;5.46;100.00;95136.78;1040285;28;20021;-67
2021/05/22 01:28:59;;;;;;;0.43;0.20;;;;;;;5.46;100.00;95140.16;1039424;28;20017;-69
2021/05/22 01:29:31;;;;;;;0.30;0.20;;;;;;;5.47;100.00;95146.19;1035564;28;20018;-69
2021/05/22 01:30:02;;;;;;;0.47;0.20;;;;;;;5.46;100.00;95141.97;1039516;28;20069;-68
2021/05/22 01:30:33;;;;;;;0.25;0.20;;;;;;;5.39;100.00;95135.16;1043882;28;20645;-65
2021/05/22 01:31:03;;;;;;;0.25;0.25;;;;;;;5.43;100.00;95138.84;1039461;28;20264;-68
2021/05/22 01:31:34;;;;;;;0.15;0.15;;;;;;;5.45;100.00;95149.00;1039222;28;20033;-68
2021/05/22 01:32:05;;;;;;;0.45;0.32;;;;;;;5.47;100.00;95140.97;1043123;28;20469;-69
2021/05/22 01:32:35;;;;;;;0.20;0.20;;;;;;;5.47;100.00;95151.38;1039733;28;20029;-69
2021/05/22 01:33:07;;;;;;;0.60;0.30;;;;;;;5.48;100.00;95164.13;1043982;28;20063;-68
2021/05/22 01:33:37;;;;;;;0.22;0.20;;;;;;;5.46;100.00;95170.59;1044044;28;20044;-69
2021/05/22 01:34:08;;;;;;;0.30;0.30;;;;;;;5.46;100.00;95186.22;1043621;28;20267;-68
2021/05/22 01:34:38;;;;;;;1.35;0.30;;;;;;;5.37;100.00;95173.66;1044337;28;20028;-67
2021/05/22 01:35:10;;;;;;;0.10;0.10;;;;;;;5.45;100.00;95195.84;1043221;28;20029;-69
2021/05/22 01:35:41;;;;;;;0.30;0.20;;;;;;;5.37;100.00;95191.06;1047748;28;20073;-68
2021/05/22 01:36:11;;;;;;;0.22;0.20;;;;;;;5.44;100.00;95199.47;1046846;28;20342;-69
2021/05/22 01:36:41;;;;;;;0.55;0.20;;;;;;;5.44;100.00;95205.47;1047939;28;20046;-68
2021/05/22 01:37:12;;;;;;;0.98;0.30;;;;;;;5.44;100.00;95210.66;1047960;28;20017;-69
2021/05/22 01:37:42;;;;;;;0.10;0.10;;;;;;;5.43;100.00;95219.50;1051902;28;20028;-68
2021/05/22 01:38:13;;;;;;;0.70;0.30;;;;;;;5.44;100.00;95225.50;1051681;28;20386;-69
2021/05/22 01:38:43;;;;;;;0.20;0.20;;;;;;;5.43;100.00;95229.91;1053342;28;20020;-68
2021/05/22 01:39:14;;;;;;;1.30;0.20;;;;;;;5.39;100.00;95218.41;1051827;28;20020;-68
2021/05/22 01:39:44;;;;;;;0.30;0.28;;;;;;;5.43;100.00;95240.31;1043520;28;20029;-67
2021/05/22 01:40:15;;;;;;;0.32;0.32;;;;;;;5.42;100.00;95236.13;1039605;28;20017;-68
2021/05/22 01:40:45;;;;;;;0.10;0.10;;;;;;;5.42;100.00;95230.94;1039982;28;20022;-69
2021/05/22 01:41:16;;;;;;;0.10;0.10;;;;;;;5.47;100.00;95258.06;1043470;28;20021;-65
2021/05/22 01:41:46;;;;;;;0.10;0.10;;;;;;;5.47;100.00;95245.81;1043594;28;20130;-69
2021/05/22 01:42:19;;;;;;;1.55;0.20;;;;;;;5.38;100.00;95223.84;1042744;28;20013;-65
2021/05/22 01:42:49;;;;;;;0.25;0.22;;;;;;;5.47;100.00;95245.81;1039202;28;20240;-68
2021/05/22 01:43:20;;;;;;;0.45;0.35;;;;;;;5.48;100.00;95247.41;1039470;28;20018;-68
2021/05/22 01:43:52;;;;;;;0.50;0.22;;;;;;;5.50;100.00;95254.94;1037599;28;20614;-69
2021/05/22 01:44:23;;;;;;;1.13;0.20;;;;;;;5.50;100.00;95253.16;1034100;28;20018;-68
2021/05/22 01:44:54;;;;;;;0.40;0.40;;;;;;;5.51;100.00;95238.31;1037517;28;20713;-69
2021/05/22 01:45:29;;;;;;;0.32;0.30;;;;;;;5.51;100.00;95243.53;1038946;28;20248;-68
2021/05/22 01:45:59;;;;;;;0.10;0.10;;;;;;;5.51;100.00;95238.31;1046704;28;20055;-69
2021/05/22 01:46:30;;;;;;;0.22;0.22;;;;;;;5.46;100.00;95222.63;1047575;28;20258;-68
2021/05/22 01:47:00;;;;;;;0.30;0.30;;;;;;;5.52;100.00;95237.28;1042554;28;20049;-68
2021/05/22 01:47:31;;;;;;;0.73;0.20;;;;;;;5.43;100.00;95227.31;1035905;28;20146;-68
2021/05/22 01:48:02;;;;;;;0.20;0.20;;;;;;;5.51;100.00;95251.34;1039181;28;20509;-68
2021/05/22 01:48:33;;;;;;;0.25;0.25;;;;;;;5.50;100.00;95249.75;1038920;28;20525;-68
2021/05/22 01:49:03;;;;;;;0.30;0.30;;;;;;;5.41;100.00;95237.16;1041739;28;20263;-68
2021/05/22 01:49:33;;;;;;;2.20;0.10;;;;;;;5.50;100.00;95239.34;1043153;28;20013;-68
2021/05/22 01:50:04;;;;;;;0.20;0.20;;;;;;;5.48;100.00;95239.59;1039120;28;20079;-69
2021/05/22 01:50:35;;;;;;;0.20;0.20;;;;;;;5.51;100.00;95246.13;1040300;28;20002;-69
2021/05/22 01:51:11;;;;;;;0.05;0.05;;;;;;;5.44;100.00;95222.91;1043151;28;20017;-69
2021/05/22 01:51:42;;;;;;;0.35;0.20;;;;;;;5.52;100.00;95237.28;1043257;28;20258;-69
2021/05/22 01:52:12;;;;;;;0.47;0.40;;;;;;;5.50;100.00;95221.94;1038763;28;20268;-69
2021/05/22 01:52:43;;;;;;;1.23;0.20;;;;;;;5.50;100.00;95228.94;1039787;28;20056;-68
2021/05/22 01:53:14;;;;;;;0.22;0.20;;;;;;;5.49;100.00;95222.16;1043118;28;20013;-68
2021/05/22 01:53:44;;;;;;;0.20;0.20;;;;;;;5.49;100.00;95230.75;1037581;28;20252;-68
2021/05/22 01:54:18;;;;;;;0.15;0.15;;;;;;;5.46;100.00;95230.44;1042965;28;20017;-68
2021/05/22 01:54:48;;;;;;;0.98;0.35;;;;;;;5.42;100.00;95223.13;1038987;28;20024;-70
2021/05/22 01:55:19;;;;;;;0.20;0.20;;;;;;;5.39;100.00;95215.78;1038704;28;20279;-69
2021/05/22 01:55:49;;;;;;;0.30;0.20;;;;;;;5.46;100.00;95233.81;1033256;28;20522;-68
2021/05/22 01:56:20;;;;;;;1.25;0.30;;;;;;;5.46;100.00;95225.25;1034837;28;20017;-68
2021/05/22 01:56:50;;;;;;;0.73;0.20;;;;;;;5.43;100.00;95221.31;1038824;28;20063;-70
2021/05/22 01:57:21;;;;;;;0.98;0.40;;;;;;;5.37;100.00;95204.09;1038783;28;20163;-69
2021/05/22 01:57:51;;;;;;;0.38;0.30;;;;;;;5.42;100.00;95223.13;1038730;28;20021;-68
2021/05/22 01:58:22;;;;;;;0.20;0.20;;;;;;;5.34;100.00;95205.34;1039163;28;20009;-66
2021/05/22 01:58:52;;;;;;;0.10;0.10;;;;;;;5.41;100.00;95210.38;1030795;28;20014;-69
2021/05/22 01:59:23;;;;;;;0.30;0.20;;;;;;;5.42;100.00;95211.94;1038679;28;20021;-68
2021/05/22 01:59:53;;;;;;;0.60;0.20;;;;;;;5.43;100.00;95219.50;1038851;28;20033;-69
2021/05/22 02:00:24;;;;;;;2.53;0.30;;;;;;;5.44;100.00;95215.09;1038993;28;20833;-68
2021/05/22 02:00:54;;;;;;;0.17;0.10;;;;;;;5.43;100.00;95206.50;1045499;28;20032;-71
2021/05/22 02:01:26;;;;;;;0.10;0.10;;;;;;;5.41;100.00;95200.75;1043015;28;20726;-69
2021/05/22 02:01:57;;;;;;;0.88;0.47;;;;;;;5.42;100.00;95199.72;1043420;28;20025;-69
2021/05/22 02:02:28;;;;;;;0.10;0.10;;;;;;;5.42;100.00;95206.72;1048059;28;20648;-68
2021/05/22 02:03:02;;;;;;;0.50;0.32;;;;;;;5.36;100.00;95195.47;1047565;28;20471;-69
2021/05/22 02:03:48;;;;;;;0.80;0.30;;;;;;;5.34;100.00;95194.94;1042988;28;20021;-69
2021/05/22 02:04:20;;;;;;;0.57;0.30;;;;;;;5.40;100.00;95195.78;1037364;28;20859;-70
2021/05/22 02:04:51;;;;;;;0.70;0.30;;;;;;;5.40;100.00;95195.78;1038818;28;20282;-69
2021/05/22 02:05:24;;;;;;;0.00;0.00;;;;;;;5.40;100.00;95191.38;1042967;28;20264;-68
2021/05/22 02:05:55;;;;;;;0.30;0.30;;;;;;;5.40;100.00;95203.59;1040601;28;20040;-66
2021/05/22 02:06:27;;;;;;;0.10;0.10;;;;;;;5.33;100.00;95195.16;1043303;28;21043;-69
2021/05/22 02:06:57;;;;;;;0.73;0.32;;;;;;;5.37;100.00;95202.25;1043817;28;20029;-68
2021/05/22 02:07:28;;;;;;;0.20;0.20;;;;;;;5.39;100.00;95200.19;1038741;28;20780;-69
2021/05/22 02:07:58;;;;;;;0.30;0.25;;;;;;;5.38;100.00;95203.81;1039190;28;20028;-66
2021/05/22 02:08:30;;;;;;;0.45;0.20;;;;;;;5.38;100.00;95211.63;1038820;28;20025;-69
2021/05/22 02:09:02;;;;;;;2.42;0.20;;;;;;;5.29;100.00;95210.47;1043121;28;20032;-68
2021/05/22 02:09:32;;;;;;;0.20;0.20;;;;;;;5.27;100.00;95196.94;1042450;28;20349;-68
2021/05/22 02:10:03;;;;;;;0.20;0.20;;;;;;;5.28;100.00;95208.91;1043606;28;20301;-69
2021/05/22 02:10:34;;;;;;;0.47;0.30;;;;;;;5.36;100.00;95213.69;1047086;28;20133;-69
2021/05/22 02:11:06;;;;;;;0.25;0.25;;;;;;;5.29;100.00;95202.66;1034521;28;20697;-70
2021/05/22 02:11:38;;;;;;;0.52;0.38;;;;;;;5.36;100.00;95210.28;1042490;28;20871;-69
2021/05/22 02:12:09;;;;;;;0.77;0.25;;;;;;;5.34;100.00;95207.94;1038859;28;20632;-69
2021/05/22 02:12:40;;;;;;;2.22;0.32;;;;;;;5.34;100.00;95214.97;1038587;28;20263;-68
2021/05/22 02:13:10;;;;;;;0.15;0.15;;;;;;;5.34;100.00;95225.38;1032910;28;20335;-68
2021/05/22 02:13:41;;;;;;;0.30;0.20;;;;;;;5.34;100.00;95231.34;1035093;28;20403;-68
2021/05/22 02:14:12;;;;;;;0.35;0.30;;;;;;;5.30;100.00;95224.25;1042990;28;20058;-69
2021/05/22 02:14:42;;;;;;;0.52;0.20;;;;;;;5.34;100.00;95215.75;1041689;28;20750;-69
2021/05/22 02:15:13;;;;;;;0.95;0.50;;;;;;;5.35;100.00;95217.31;1034919;28;20605;-68
2021/05/22 02:15:55;;;;;;;0.20;0.20;;;;;;;5.35;100.00;95212.13;1030083;28;20377;-66
2021/05/22 02:16:29;;;;;;;0.13;0.13;;;;;;;5.35;100.00;95212.13;1033417;28;20663;-69
2021/05/22 02:17:02;;;;;;;0.50;0.28;;;;;;;5.32;100.00;95228.19;1037096;28;20284;-68
2021/05/22 02:17:32;;;;;;;0.20;0.20;;;;;;;5.35;100.00;95225.13;1041177;28;20329;-68
2021/05/22 02:18:03;;;;;;;0.60;0.30;;;;;;;5.38;100.00;95234.25;1042477;28;20310;-69
2021/05/22 02:18:34;;;;;;;0.25;0.25;;;;;;;5.37;100.00;95230.88;1047208;28;20027;-68
2021/05/22 02:19:08;;;;;;;0.98;0.40;;;;;;;5.35;100.00;95227.72;1042974;28;20271;-69
2021/05/22 02:19:38;;;;;;;0.20;0.20;;;;;;;5.34;100.00;95207.94;1051232;28;20934;-70
2021/05/22 02:20:09;;;;;;;0.60;0.20;;;;;;;5.34;100.00;95215.75;1042350;28;20279;-68
2021/05/22 02:20:40;;;;;;;0.20;0.20;;;;;;;5.35;100.00;95212.13;1043148;28;20560;-68
2021/05/22 02:21:10;;;;;;;0.70;0.30;;;;;;;5.38;100.00;95216.84;1048473;28;20298;-68
2021/05/22 02:21:40;;;;;;;1.83;0.20;;;;;;;5.39;100.00;95210.59;1051374;28;20061;-69
2021/05/22 02:22:11;;;;;;;1.25;0.20;;;;;;;5.35;100.00;95206.13;1055328;28;20751;-68
2021/05/22 02:22:42;;;;;;;0.50;0.32;;;;;;;5.33;100.00;95190.78;1047109;28;20028;-67
2021/05/22 02:23:14;;;;;;;0.40;0.40;;;;;;;5.42;100.00;95210.13;1042724;28;20037;-69
2021/05/22 02:23:45;;;;;;;0.68;0.30;;;;;;;5.37;100.00;95196.28;1038696;28;20676;-69
2021/05/22 02:24:17;;;;;;;0.52;0.30;;;;;;;5.35;100.00;95188.69;1037062;28;21087;-67
2021/05/22 02:24:50;;;;;;;5.05;0.32;;;;;;;5.42;100.00;95194.50;1038395;28;20283;-67
2021/05/22 02:25:21;;;;;;;0.50;0.22;;;;;;;5.34;100.00;95184.53;1038958;28;20268;-69
2021/05/22 02:25:55;;;;;;;0.68;0.38;;;;;;;5.34;100.00;95179.34;1038451;28;20276;-68
2021/05/22 02:26:26;;;;;;;0.38;0.28;;;;;;;5.37;100.00;95186.66;1037518;28;20017;-67
2021/05/22 02:26:57;;;;;;;0.30;0.30;;;;;;;5.34;100.00;95189.75;1035042;28;20268;-72
2021/05/22 02:27:28;;;;;;;0.63;0.30;;;;;;;5.35;100.00;95193.91;1035336;28;20021;-68
2021/05/22 02:27:59;;;;;;;1.00;0.30;;;;;;;5.39;100.00;95197.59;1043030;28;20764;-70